createdAt,value
2023-03-18T00:00:23.701Z,73.54
2023-03-18T00:02:58.399Z,73.85
2023-03-18T00:05:31.098Z,74.43
2023-03-18T00:08:04.662Z,74.65
2023-03-18T00:10:38.027Z,75.11
2023-03-18T00:13:10.865Z,74.77
2023-03-18T00:15:43.585Z,74.78
2023-03-18T00:18:17.779Z,75.13
2023-03-18T00:20:50.570Z,75.21
2023-03-18T00:23:23.584Z,75.09
2023-03-18T00:25:57.497Z,75.02
2023-03-18T00:28:31.716Z,75.17
2023-03-18T00:31:08.636Z,75.11
2023-03-18T00:33:45.759Z,75.23
2023-03-18T00:36:25.619Z,75.75
2023-03-18T00:39:03.325Z,74.98
2023-03-18T00:41:36.943Z,74.95
2023-03-18T00:44:10.050Z,74.68
2023-03-18T00:46:43.564Z,75.51
2023-03-18T00:49:18.103Z,75.12
2023-03-18T00:51:52.068Z,75.14
2023-03-18T00:54:24.894Z,74.96
2023-03-18T00:56:57.871Z,74.78
2023-03-18T00:59:30.839Z,75.10
2023-03-18T01:02:04.068Z,74.46
2023-03-18T01:04:38.296Z,74.41
2023-03-18T01:07:12.413Z,74.08
2023-03-18T01:09:45.261Z,74.73
2023-03-18T01:12:18.006Z,74.30
2023-03-18T01:14:50.880Z,74.25
2023-03-18T01:17:23.595Z,74.42
2023-03-18T01:19:57.727Z,74.20
2023-03-18T01:22:30.548Z,74.28
2023-03-18T01:25:03.305Z,74.04
2023-03-18T01:27:36.055Z,73.90
2023-03-18T01:30:10.051Z,74.29
2023-03-18T01:32:43.955Z,73.94
2023-03-18T01:35:18.217Z,73.78
2023-03-18T01:37:51.682Z,73.78
2023-03-18T01:40:24.857Z,73.47
2023-03-18T01:42:58.596Z,72.86
2023-03-18T01:45:31.755Z,72.79
2023-03-18T01:48:04.671Z,72.78
2023-03-18T01:50:38.997Z,73.12
2023-03-18T01:53:13.238Z,72.82
2023-03-18T01:55:47.472Z,73.03
2023-03-18T01:58:22.182Z,72.53
2023-03-18T02:00:57.532Z,72.71
2023-03-18T02:03:30.490Z,73.17
2023-03-18T02:06:05.203Z,72.43
2023-03-18T02:08:39.545Z,72.82
2023-03-18T02:11:12.629Z,73.07
2023-03-18T02:13:46.956Z,72.86
2023-03-18T02:16:22.479Z,73.09
2023-03-18T02:18:57.802Z,72.49
2023-03-18T02:21:41.850Z,72.50
2023-03-18T02:24:20.994Z,72.86
2023-03-18T02:26:57.652Z,73.11
2023-03-18T02:29:32.770Z,72.59
2023-03-18T02:32:07.194Z,73.10
2023-03-18T02:34:41.913Z,73.03
2023-03-18T02:37:15.503Z,72.93
2023-03-18T02:39:48.467Z,72.95
2023-03-18T02:42:29.015Z,73.02
2023-03-18T02:45:03.426Z,72.84
2023-03-18T02:47:36.150Z,72.77
2023-03-18T02:50:09.399Z,72.90
2023-03-18T02:52:42.330Z,72.74
2023-03-18T02:55:15.565Z,72.98
2023-03-18T02:57:48.351Z,72.91
2023-03-18T03:00:22.832Z,73.10
2023-03-18T03:02:55.728Z,72.99
2023-03-18T03:05:28.462Z,72.92
2023-03-18T03:08:01.756Z,72.79
2023-03-18T03:10:34.677Z,72.77
2023-03-18T03:13:07.620Z,72.84
2023-03-18T03:15:42.886Z,72.96
2023-03-18T03:18:15.909Z,72.92
2023-03-18T03:20:48.599Z,72.93
2023-03-18T03:23:21.567Z,73.14
2023-03-18T03:25:54.277Z,73.10
2023-03-18T03:28:28.533Z,73.25
2023-03-18T03:31:03.171Z,73.11
2023-03-18T03:33:36.393Z,73.15
2023-03-18T03:36:09.753Z,73.18
2023-03-18T03:38:43.825Z,73.16
2023-03-18T03:41:17.220Z,73.15
2023-03-18T03:43:50.055Z,73.07
2023-03-18T03:46:24.334Z,72.93
2023-03-18T03:48:57.487Z,72.81
2023-03-18T03:51:30.294Z,73.04
2023-03-18T03:54:03.564Z,72.92
2023-03-18T03:56:36.476Z,72.63
2023-03-18T03:59:10.245Z,72.83
2023-03-18T04:01:44.806Z,72.90
2023-03-18T04:04:17.696Z,72.90
2023-03-18T04:06:50.939Z,72.43
2023-03-18T04:09:23.933Z,72.94
2023-03-18T04:11:57.005Z,73.00
2023-03-18T04:14:29.771Z,72.98
2023-03-18T04:17:03.980Z,73.00
2023-03-18T04:19:36.978Z,73.09
2023-03-18T04:22:09.776Z,73.32
2023-03-18T04:24:42.825Z,73.03
2023-03-18T04:27:15.972Z,73.06
2023-03-18T04:29:48.971Z,73.18
2023-03-18T04:32:23.120Z,72.94
2023-03-18T04:34:55.855Z,73.18
2023-03-18T04:37:28.555Z,72.73
2023-03-18T04:40:01.281Z,72.84
2023-03-18T04:42:34.001Z,73.29
2023-03-18T04:45:07.706Z,73.26
2023-03-18T04:47:41.865Z,73.16
2023-03-18T04:50:15.446Z,73.06
2023-03-18T04:52:48.327Z,72.70
2023-03-18T04:55:21.339Z,72.86
2023-03-18T04:57:54.602Z,72.42
2023-03-18T05:00:27.797Z,72.84
2023-03-18T05:03:03.123Z,72.86
2023-03-18T05:05:38.473Z,72.48
2023-03-18T05:08:11.379Z,72.61
2023-03-18T05:10:44.960Z,72.11
2023-03-18T05:13:18.624Z,72.33
2023-03-18T05:15:51.355Z,72.27
2023-03-18T05:18:25.418Z,72.33
2023-03-18T05:20:58.221Z,71.81
2023-03-18T05:23:30.945Z,71.81
2023-03-18T05:26:03.714Z,72.08
2023-03-18T05:28:36.477Z,71.73
2023-03-18T05:31:09.239Z,71.97
2023-03-18T05:33:45.151Z,71.97
2023-03-18T05:36:18.911Z,72.04
2023-03-18T05:38:51.583Z,72.04
2023-03-18T05:41:24.456Z,72.37
2023-03-18T05:43:57.339Z,72.50
2023-03-18T05:46:30.270Z,72.50
2023-03-18T05:49:04.615Z,73.03
2023-03-18T05:51:37.786Z,72.63
2023-03-18T05:54:10.535Z,72.81
2023-03-18T05:56:43.628Z,73.44
2023-03-18T05:59:16.508Z,72.93
2023-03-18T06:01:50.169Z,73.39
2023-03-18T06:04:24.983Z,73.28
2023-03-18T06:06:58.435Z,73.72
2023-03-18T06:09:33.369Z,73.32
2023-03-18T06:12:07.350Z,73.57
2023-03-18T06:14:40.071Z,73.12
2023-03-18T06:17:14.114Z,73.69
2023-03-18T06:19:48.334Z,73.56
2023-03-18T06:22:21.163Z,73.58
2023-03-18T06:24:54.118Z,73.85
2023-03-18T06:27:27.178Z,73.32
2023-03-18T06:30:02.954Z,74.03
2023-03-18T06:32:36.078Z,74.03
2023-03-18T06:35:11.786Z,73.79
2023-03-18T06:37:44.494Z,74.09
2023-03-18T06:40:17.421Z,73.98
2023-03-18T06:42:50.354Z,74.08
2023-03-18T06:45:23.425Z,74.28
2023-03-18T06:47:56.954Z,74.77
2023-03-18T06:50:32.112Z,74.53
2023-03-18T06:53:05.569Z,74.88
2023-03-18T06:55:38.271Z,75.01
2023-03-18T06:58:11.747Z,75.31
2023-03-18T07:00:47.740Z,75.55
2023-03-18T07:03:21.683Z,76.12
2023-03-18T07:05:56.106Z,76.28
2023-03-18T07:08:29.309Z,76.52
2023-03-18T07:11:02.879Z,76.62
2023-03-18T07:13:35.834Z,76.72
2023-03-18T07:16:08.637Z,76.91
2023-03-18T07:18:43.049Z,77.12
2023-03-18T07:21:17.912Z,77.21
2023-03-18T07:23:52.232Z,77.42
2023-03-18T07:26:25.046Z,77.67
2023-03-18T07:28:58.344Z,77.60
2023-03-18T07:31:31.306Z,77.84
2023-03-18T07:34:04.207Z,77.88
2023-03-18T07:36:38.412Z,77.92
2023-03-18T07:39:11.286Z,77.94
2023-03-18T07:41:44.093Z,78.14
2023-03-18T07:44:16.894Z,77.78
2023-03-18T07:46:49.612Z,77.94
2023-03-18T07:49:23.901Z,78.13
2023-03-18T07:51:58.108Z,78.11
2023-03-18T07:54:30.785Z,77.66
2023-03-18T07:57:03.939Z,77.78
2023-03-18T07:59:37.593Z,77.75
2023-03-18T08:02:12.702Z,78.06
2023-03-18T08:04:46.921Z,77.60
2023-03-18T08:07:23.035Z,77.59
2023-03-18T08:09:56.312Z,77.32
2023-03-18T08:12:38.424Z,77.28
2023-03-18T08:15:18.082Z,77.56
2023-03-18T08:17:51.219Z,77.51
2023-03-18T08:20:23.963Z,77.47
2023-03-18T08:22:58.425Z,77.46
2023-03-18T08:25:31.677Z,77.26
2023-03-18T08:28:07.636Z,77.17
2023-03-18T08:30:41.289Z,76.61
2023-03-18T08:33:14.017Z,77.08
2023-03-18T08:35:46.821Z,76.45
2023-03-18T08:38:20.885Z,76.64
2023-03-18T08:40:53.578Z,77.24
2023-03-18T08:43:27.180Z,76.94
2023-03-18T08:46:00.086Z,76.89
2023-03-18T08:48:32.896Z,76.89
2023-03-18T08:51:08.382Z,73.97
2023-03-18T08:53:42.855Z,74.78
2023-03-18T08:56:16.012Z,74.12
2023-03-18T08:58:48.956Z,75.07
2023-03-18T09:01:22.661Z,72.66
2023-03-18T09:03:57.806Z,71.97
2023-03-18T09:06:31.174Z,75.26
2023-03-18T09:09:05.356Z,74.49
2023-03-18T09:11:39.130Z,73.03
2023-03-18T09:14:11.868Z,73.26
2023-03-18T09:16:46.167Z,74.61
2023-03-18T09:19:18.865Z,73.87
2023-03-18T09:21:51.563Z,72.52
2023-03-18T09:24:25.982Z,74.00
2023-03-18T09:26:59.870Z,72.09
2023-03-18T09:29:33.043Z,74.44
2023-03-18T09:32:06.099Z,75.06
2023-03-18T09:34:38.739Z,75.10
2023-03-18T09:37:11.545Z,74.62
2023-03-18T09:39:47.757Z,70.29
2023-03-18T09:42:27.567Z,74.27
2023-03-18T09:45:02.425Z,76.28
2023-03-18T09:47:48.489Z,75.57
2023-03-18T09:50:27.656Z,73.78
2023-03-18T09:53:06.664Z,72.42
2023-03-18T09:55:46.630Z,68.94
2023-03-18T09:58:22.485Z,71.91
2023-03-18T10:00:58.294Z,72.85
2023-03-18T10:03:36.193Z,72.69
2023-03-18T10:06:16.323Z,70.42
2023-03-18T10:08:54.127Z,70.41
2023-03-18T10:11:32.154Z,73.45
2023-03-18T10:14:21.742Z,68.24
2023-03-18T10:17:02.451Z,72.31
2023-03-18T10:19:37.719Z,72.06
2023-03-18T10:22:28.300Z,73.54
2023-03-18T10:25:07.337Z,72.82
2023-03-18T10:27:50.309Z,69.33
2023-03-18T10:30:32.644Z,70.69
2023-03-18T10:33:08.230Z,72.68
2023-03-18T10:35:43.609Z,67.77
2023-03-18T10:38:19.924Z,70.43
2023-03-18T10:40:52.730Z,71.16
2023-03-18T10:43:28.376Z,71.83
2023-03-18T10:46:02.216Z,72.37
2023-03-18T10:48:37.291Z,70.04
2023-03-18T10:51:13.880Z,68.63
2023-03-18T10:53:49.552Z,70.05
2023-03-18T10:56:22.364Z,70.34
2023-03-18T10:58:57.590Z,70.04
2023-03-18T11:01:30.380Z,71.77
2023-03-18T11:04:06.159Z,66.03
2023-03-18T11:06:43.161Z,66.75
2023-03-18T11:09:18.103Z,68.77
2023-03-18T11:11:51.804Z,66.56
2023-03-18T11:14:29.795Z,66.33
2023-03-18T11:17:04.566Z,63.31
2023-03-18T11:19:39.913Z,65.54
2023-03-18T11:22:18.664Z,65.15
2023-03-18T11:25:06.207Z,65.01
2023-03-18T11:27:40.536Z,69.31
2023-03-18T11:30:32.716Z,68.21
2023-03-18T11:33:07.386Z,69.43
2023-03-18T11:35:41.937Z,72.43
2023-03-18T11:38:19.488Z,68.33
2023-03-18T11:40:52.180Z,65.26
2023-03-18T11:43:26.437Z,67.62
2023-03-18T11:46:01.775Z,71.08
2023-03-18T11:48:36.865Z,65.51
2023-03-18T11:51:27.509Z,68.96
2023-03-18T11:54:18.498Z,66.19
2023-03-18T11:56:56.165Z,70.07
2023-03-18T11:59:31.516Z,67.61
2023-03-18T12:02:19.469Z,74.59
2023-03-18T12:05:03.075Z,72.82
2023-03-18T12:07:49.451Z,72.87
2023-03-18T12:10:26.040Z,70.87
2023-03-18T12:13:08.159Z,70.70
2023-03-18T12:15:47.310Z,71.46
2023-03-18T12:18:27.541Z,68.60
2023-03-18T12:21:05.107Z,67.53
2023-03-18T12:23:54.874Z,65.98
2023-03-18T12:26:30.922Z,69.83
2023-03-18T12:29:13.453Z,67.80
2023-03-18T12:32:02.206Z,68.17
2023-03-18T12:34:53.168Z,65.88
2023-03-18T12:37:33.154Z,66.94
2023-03-18T12:40:18.971Z,65.62
2023-03-18T12:42:57.950Z,65.53
2023-03-18T12:45:34.496Z,69.00
2023-03-18T12:48:11.395Z,68.44
2023-03-18T12:50:48.509Z,67.93
2023-03-18T12:53:25.403Z,67.25
2023-03-18T12:56:01.771Z,60.21
2023-03-18T12:58:39.072Z,66.77
2023-03-18T13:01:18.409Z,70.25
2023-03-18T13:03:54.576Z,65.82
2023-03-18T13:06:31.841Z,69.13
2023-03-18T13:09:09.956Z,68.66
2023-03-18T13:12:02.024Z,68.30
2023-03-18T13:14:43.160Z,73.06
2023-03-18T13:17:18.063Z,74.70
2023-03-18T13:19:50.862Z,73.83
2023-03-18T13:22:33.427Z,72.29
2023-03-18T13:25:17.974Z,73.68
2023-03-18T13:28:00.714Z,73.46
2023-03-18T13:30:40.392Z,74.61
2023-03-18T13:33:23.140Z,72.87
2023-03-18T13:36:07.340Z,63.96
2023-03-18T13:38:48.612Z,73.70
2023-03-18T13:41:32.670Z,74.62
2023-03-18T13:44:11.557Z,72.95
2023-03-18T13:46:47.929Z,71.98
2023-03-18T13:49:24.012Z,72.92
2023-03-18T13:51:58.378Z,70.88
2023-03-18T13:54:34.871Z,71.67
2023-03-18T13:57:19.509Z,70.83
2023-03-18T13:59:52.188Z,72.19
2023-03-18T14:02:35.633Z,76.10
2023-03-18T14:05:34.874Z,71.04
2023-03-18T14:08:24.698Z,72.24
2023-03-18T14:11:12.306Z,73.18
2023-03-18T14:13:50.979Z,68.25
2023-03-18T14:16:24.541Z,71.80
2023-03-18T14:19:00.117Z,63.71
2023-03-18T14:21:34.150Z,68.45
2023-03-18T14:24:12.748Z,71.37
2023-03-18T14:26:49.417Z,74.07
2023-03-18T14:29:26.551Z,67.68
2023-03-18T14:32:00.145Z,67.16
2023-03-18T14:34:33.598Z,70.99
2023-03-18T14:37:21.209Z,69.76
2023-03-18T14:39:55.052Z,66.10
2023-03-18T14:42:34.351Z,69.49
2023-03-18T14:45:14.508Z,67.39
2023-03-18T14:47:50.673Z,69.23
2023-03-18T14:50:30.893Z,67.32
2023-03-18T14:53:06.355Z,68.56
2023-03-18T14:55:40.291Z,63.63
2023-03-18T14:58:17.474Z,70.26
2023-03-18T15:00:53.326Z,72.46
2023-03-18T15:03:27.331Z,67.32
2023-03-18T15:06:01.627Z,67.67
2023-03-18T15:08:47.280Z,67.20
2023-03-18T15:11:22.917Z,67.84
2023-03-18T15:13:57.309Z,67.88
2023-03-18T15:16:33.402Z,69.86
2023-03-18T15:19:06.720Z,66.41
2023-03-18T15:21:39.664Z,68.41
2023-03-18T15:24:17.221Z,70.47
2023-03-18T15:26:57.392Z,69.89
2023-03-18T15:29:33.485Z,69.07
2023-03-18T15:32:17.416Z,63.46
2023-03-18T15:34:53.787Z,69.96
2023-03-18T15:37:34.838Z,70.12
2023-03-18T15:40:31.297Z,69.98
2023-03-18T15:43:18.109Z,69.41
2023-03-18T15:45:54.625Z,70.86
2023-03-18T15:48:35.104Z,67.32
2023-03-18T15:51:10.999Z,69.36
2023-03-18T15:53:44.852Z,68.91
2023-03-18T15:56:19.789Z,70.18
2023-03-18T15:58:58.311Z,71.22
2023-03-18T16:01:31.095Z,71.29
2023-03-18T16:04:06.543Z,70.50
2023-03-18T16:06:40.408Z,70.82
2023-03-18T16:09:15.693Z,68.15
2023-03-18T16:11:49.692Z,68.20
2023-03-18T16:14:24.330Z,69.60
2023-03-18T16:16:57.334Z,69.85
2023-03-18T16:19:31.551Z,68.26
2023-03-18T16:22:04.286Z,70.15
2023-03-18T16:24:37.899Z,70.40
2023-03-18T16:27:29.113Z,70.38
2023-03-18T16:30:02.036Z,70.54
2023-03-18T16:32:35.614Z,69.87
2023-03-18T16:35:14.795Z,68.71
2023-03-18T16:37:48.120Z,70.12
2023-03-18T16:40:21.792Z,69.81
2023-03-18T16:42:55.510Z,69.83
2023-03-18T16:45:30.465Z,70.46
2023-03-18T16:48:04.910Z,70.76
2023-03-18T16:50:39.944Z,70.85
2023-03-18T16:53:14.057Z,70.84
2023-03-18T16:55:48.158Z,71.00
2023-03-18T16:58:23.652Z,71.17
2023-03-18T17:00:57.099Z,71.05
2023-03-18T17:03:31.569Z,71.14
2023-03-18T17:06:06.936Z,71.13
2023-03-18T17:08:39.984Z,71.07
2023-03-18T17:11:18.100Z,71.39
2023-03-18T17:13:50.979Z,71.46
2023-03-18T17:16:23.773Z,71.75
2023-03-18T17:18:58.474Z,71.55
2023-03-18T17:21:32.847Z,71.68
2023-03-18T17:24:06.306Z,71.49
2023-03-18T17:26:39.118Z,71.45
2023-03-18T17:29:19.994Z,71.64
2023-03-18T17:31:52.770Z,71.60
2023-03-18T17:34:25.415Z,71.81
2023-03-18T17:36:59.740Z,71.87
2023-03-18T17:39:32.456Z,71.76
2023-03-18T17:42:06.102Z,72.11
2023-03-18T17:44:38.796Z,72.13
2023-03-18T17:47:11.912Z,72.10
2023-03-18T17:49:44.629Z,72.54
2023-03-18T17:52:21.048Z,72.34
2023-03-18T17:54:54.004Z,72.25
2023-03-18T17:57:27.212Z,72.16
2023-03-18T17:59:59.831Z,72.51
2023-03-18T18:02:33.199Z,72.39
2023-03-18T18:05:07.134Z,72.68
2023-03-18T18:07:42.526Z,72.60
2023-03-18T18:10:16.478Z,72.57
2023-03-18T18:12:50.154Z,72.70
2023-03-18T18:15:25.544Z,72.46
2023-03-18T18:17:58.813Z,72.75
2023-03-18T18:20:31.546Z,72.56
2023-03-18T18:23:05.970Z,72.48
2023-03-18T18:25:38.891Z,72.41
2023-03-18T18:28:18.483Z,72.55
2023-03-18T18:30:51.209Z,72.95
2023-03-18T18:33:23.943Z,73.08
2023-03-18T18:35:57.042Z,73.00
2023-03-18T18:38:31.299Z,73.09
2023-03-18T18:41:04.113Z,72.88
2023-03-18T18:43:37.198Z,73.11
2023-03-18T18:46:11.851Z,73.33
2023-03-18T18:48:45.855Z,73.37
2023-03-18T18:51:19.551Z,73.15
2023-03-18T18:53:54.611Z,73.49
2023-03-18T18:56:32.231Z,73.16
2023-03-18T18:59:08.369Z,73.52
2023-03-18T19:01:41.108Z,73.55
2023-03-18T19:04:15.611Z,73.85
2023-03-18T19:06:49.732Z,73.51
2023-03-18T19:09:24.629Z,73.48
2023-03-18T19:11:57.272Z,73.27
2023-03-18T19:14:31.294Z,73.73
2023-03-18T19:17:04.289Z,73.60
2023-03-18T19:19:37.067Z,73.77
2023-03-18T19:22:11.718Z,73.74
2023-03-18T19:24:48.493Z,73.89
2023-03-18T19:27:23.597Z,73.96
2023-03-18T19:29:57.559Z,73.96
2023-03-18T19:32:30.583Z,74.20
2023-03-18T19:35:03.484Z,74.31
2023-03-18T19:37:36.944Z,73.99
2023-03-18T19:40:20.752Z,74.59
2023-03-18T19:42:53.659Z,74.43
2023-03-18T19:45:27.177Z,74.57
2023-03-18T19:47:59.987Z,74.27
2023-03-18T19:50:32.826Z,74.18
2023-03-18T19:53:11.013Z,74.22
2023-03-18T19:55:46.211Z,74.07
2023-03-18T19:58:23.228Z,74.10
2023-03-18T20:00:56.242Z,74.03
2023-03-18T20:03:29.335Z,73.93
2023-03-18T20:06:02.930Z,74.18
2023-03-18T20:08:35.587Z,74.91
2023-03-18T20:11:13.320Z,74.70
2023-03-18T20:13:46.465Z,75.19
2023-03-18T20:16:19.555Z,75.16
2023-03-18T20:18:52.665Z,75.06
2023-03-18T20:21:28.321Z,74.99
2023-03-18T20:24:04.119Z,75.12
2023-03-18T20:26:38.366Z,75.10
2023-03-18T20:29:16.077Z,75.11
2023-03-18T20:31:49.194Z,75.16
2023-03-18T20:34:23.120Z,75.27
2023-03-18T20:36:55.906Z,75.29
2023-03-18T20:39:28.627Z,75.36
2023-03-18T20:42:03.086Z,75.18
2023-03-18T20:44:36.328Z,75.40
2023-03-18T20:47:09.066Z,75.41
2023-03-18T20:49:44.622Z,75.29
2023-03-18T20:52:26.007Z,75.05
2023-03-18T20:54:58.856Z,74.89
2023-03-18T20:57:33.269Z,75.01
2023-03-18T21:00:07.546Z,75.09
2023-03-18T21:02:40.332Z,74.81
2023-03-18T21:05:13.471Z,74.81
2023-03-18T21:07:47.563Z,74.59
2023-03-18T21:10:20.952Z,74.30
2023-03-18T21:12:55.395Z,74.63
2023-03-18T21:15:28.931Z,74.53
2023-03-18T21:18:01.738Z,74.41
2023-03-18T21:20:35.746Z,74.56
2023-03-18T21:23:12.718Z,74.41
2023-03-18T21:25:45.558Z,74.36
2023-03-18T21:28:21.668Z,74.28
2023-03-18T21:30:57.945Z,74.43
2023-03-18T21:33:31.979Z,74.44
2023-03-18T21:36:04.830Z,74.64
2023-03-18T21:38:38.634Z,74.56
2023-03-18T21:41:18.684Z,74.60
2023-03-18T21:43:52.799Z,74.88
2023-03-18T21:46:27.229Z,75.25
2023-03-18T21:49:00.061Z,75.08
2023-03-18T21:51:39.479Z,75.42
2023-03-18T21:54:17.824Z,75.18
2023-03-18T21:56:50.858Z,75.11
2023-03-18T21:59:25.015Z,75.24
2023-03-18T22:01:57.821Z,75.28
2023-03-18T22:04:30.808Z,75.25
2023-03-18T22:07:03.515Z,75.21
2023-03-18T22:09:36.232Z,75.28
2023-03-18T22:12:13.600Z,75.33
2023-03-18T22:14:47.833Z,75.36
2023-03-18T22:17:24.995Z,75.38
2023-03-18T22:19:58.982Z,75.36
2023-03-18T22:22:36.660Z,75.70
2023-03-18T22:25:17.266Z,75.41
2023-03-18T22:27:50.006Z,75.65
2023-03-18T22:30:24.609Z,75.60
2023-03-18T22:32:58.088Z,75.40
2023-03-18T22:35:31.298Z,75.24
2023-03-18T22:38:04.100Z,75.38
2023-03-18T22:40:37.091Z,75.30
2023-03-18T22:43:18.131Z,75.29
2023-03-18T22:45:52.596Z,75.18
2023-03-18T22:48:25.701Z,75.32
2023-03-18T22:51:00.290Z,75.25
2023-03-18T22:53:34.648Z,75.30
2023-03-18T22:56:09.250Z,75.23
2023-03-18T22:58:42.001Z,75.03
2023-03-18T23:01:17.615Z,75.03
2023-03-18T23:03:50.602Z,74.87
2023-03-18T23:06:24.079Z,74.61
2023-03-18T23:08:56.944Z,74.61
2023-03-18T23:11:30.567Z,74.53
2023-03-18T23:14:05.338Z,74.56
2023-03-18T23:16:39.595Z,74.93
2023-03-18T23:19:12.281Z,74.43
2023-03-18T23:21:44.989Z,74.37
2023-03-18T23:24:17.686Z,74.75
2023-03-18T23:26:50.350Z,74.71
2023-03-18T23:29:23.091Z,74.66
2023-03-18T23:31:57.472Z,74.55
2023-03-18T23:34:30.150Z,74.68
2023-03-18T23:37:04.185Z,74.43
2023-03-18T23:39:42.796Z,74.32
2023-03-18T23:42:16.361Z,74.29
2023-03-18T23:44:50.090Z,73.92
2023-03-18T23:47:24.146Z,74.04
2023-03-18T23:49:56.851Z,73.95
2023-03-18T23:52:29.659Z,73.83
2023-03-18T23:55:02.559Z,74.12
2023-03-18T23:57:35.770Z,73.92
